Time,TemperatureF,DewpointF,PressureIn,WindDirection,WindDirectionDegrees,WindSpeedMPH,WindSpeedGustMPH,Humidity,HourlyPrecipIn,Conditions,Clouds,dailyrainin,SoftwareType,DateUTC
2013-08-28 00:00:00,71.6,71.0,29.98,NW,319,0.0,0.0,98,0.00,,,0.00,Wunderground v.1.15,2013-08-28 04:00:00,
2013-08-28 00:01:00,71.5,70.9,29.98,NW,319,0.0,0.0,98,0.00,,,0.00,Wunderground v.1.15,2013-08-28 04:01:00,
2013-08-28 00:03:00,71.5,70.9,29.98,NW,319,0.0,0.0,98,0.00,,,0.00,Wunderground v.1.15,2013-08-28 04:03:00,
2013-08-28 00:04:00,71.5,70.9,29.98,NW,319,0.0,0.0,98,0.00,,,0.00,Wunderground v.1.15,2013-08-28 04:04:00,
2013-08-28 00:05:00,71.5,70.9,29.98,NW,319,0.0,0.0,98,0.00,,,0.00,Wunderground v.1.15,2013-08-28 04:05:00,
2013-08-28 00:09:00,71.4,70.8,29.98,NW,319,0.0,0.0,98,0.00,,,0.00,Wunderground v.1.15,2013-08-28 04:09:00,
2013-08-28 00:15:00,71.3,70.7,29.98,NW,319,0.0,0.0,98,0.00,,,0.00,Wunderground v.1.15,2013-08-28 04:15:00,
2013-08-28 00:20:00,71.1,70.5,29.98,NW,319,0.0,0.0,98,0.00,,,0.00,Wunderground v.1.15,2013-08-28 04:20:00,
2013-08-28 00:26:00,71.0,70.4,29.97,NW,319,0.0,0.0,98,0.00,,,0.00,Wunderground v.1.15,2013-08-28 04:26:00,
2013-08-28 00:32:00,70.8,70.2,29.97,NW,319,0.0,0.0,98,0.00,,,0.00,Wunderground v.1.15,2013-08-28 04:32:00,
2013-08-28 00:38:00,70.7,70.1,29.97,NW,319,0.0,0.0,98,0.00,,,0.00,Wunderground v.1.15,2013-08-28 04:38:00,
2013-08-28 00:44:00,70.7,70.1,29.97,NW,319,0.0,0.0,98,0.00,,,0.00,Wunderground v.1.15,2013-08-28 04:44:00,
2013-08-28 00:50:00,70.6,70.3,29.97,NW,319,0.0,0.0,99,0.00,,,0.00,Wunderground v.1.15,2013-08-28 04:50:00,
2013-08-28 00:55:00,70.5,69.9,29.97,NW,319,0.0,0.0,98,0.00,,,0.00,Wunderground v.1.15,2013-08-28 04:55:00,
2013-08-28 01:01:00,70.3,70.0,29.97,NW,319,0.0,0.0,99,0.00,,,0.00,Wunderground v.1.15,2013-08-28 05:01:00,
2013-08-28 01:07:00,70.2,69.6,29.97,NW,319,0.0,0.0,98,0.00,,,0.00,Wunderground v.1.15,2013-08-28 05:07:00,
2013-08-28 01:12:00,70.1,69.8,29.97,NW,319,0.0,0.0,99,0.00,,,0.00,Wunderground v.1.15,2013-08-28 05:12:00,
2013-08-28 01:18:00,70.1,69.8,29.97,NW,319,0.0,0.0,99,0.00,,,0.00,Wunderground v.1.15,2013-08-28 05:18:00,
2013-08-28 01:24:00,69.9,69.6,29.97,NW,319,0.0,0.0,99,0.00,,,0.00,Wunderground v.1.15,2013-08-28 05:24:00,
2013-08-28 01:29:00,69.8,69.5,29.97,NW,319,0.0,0.0,99,0.00,,,0.00,Wunderground v.1.15,2013-08-28 05:29:00,
2013-08-28 01:34:00,69.6,69.3,29.97,NW,319,0.0,0.0,99,0.00,,,0.00,Wunderground v.1.15,2013-08-28 05:34:00,
2013-08-28 01:40:00,69.5,69.2,29.97,NW,319,0.0,0.0,99,0.00,,,0.00,Wunderground v.1.15,2013-08-28 05:40:00,
2013-08-28 01:46:00,69.4,69.1,29.96,NW,319,0.0,0.0,99,0.00,,,0.00,Wunderground v.1.15,2013-08-28 05:46:00,
2013-08-28 01:51:00,69.4,69.1,29.96,NW,319,0.0,0.0,99,0.00,,,0.00,Wunderground v.1.15,2013-08-28 05:51:00,
2013-08-28 01:56:00,69.4,69.1,29.97,NW,319,0.0,0.0,99,0.00,,,0.00,Wunderground v.1.15,2013-08-28 05:56:00,
2013-08-28 02:01:00,69.3,69.0,29.96,NW,319,0.0,0.0,99,0.00,,,0.00,Wunderground v.1.15,2013-08-28 06:01:00,
2013-08-28 02:06:00,69.3,69.0,29.96,NW,319,0.0,0.0,99,0.00,,,0.00,Wunderground v.1.15,2013-08-28 06:06:00,
2013-08-28 02:11:00,69.1,68.8,29.96,NW,319,0.0,0.0,99,0.00,,,0.00,Wunderground v.1.15,2013-08-28 06:11:00,
2013-08-28 02:16:00,69.0,68.7,29.96,NW,319,0.0,0.0,99,0.00,,,0.00,Wunderground v.1.15,2013-08-28 06:16:00,
2013-08-28 02:21:00,69.0,68.7,29.96,NW,319,0.0,0.0,99,0.00,,,0.00,Wunderground v.1.15,2013-08-28 06:21:00,
2013-08-28 02:26:00,68.9,68.6,29.96,NW,319,0.0,0.0,99,0.00,,,0.00,Wunderground v.1.15,2013-08-28 06:26:00,
2013-08-28 02:31:00,68.9,68.6,29.96,NW,319,0.0,0.0,99,0.00,,,0.00,Wunderground v.1.15,2013-08-28 06:31:00,
2013-08-28 02:36:00,68.9,68.6,29.95,NW,319,0.0,0.0,99,0.00,,,0.00,Wunderground v.1.15,2013-08-28 06:36:00,
2013-08-28 02:41:00,69.0,68.7,29.95,NW,319,0.0,0.0,99,0.00,,,0.00,Wunderground v.1.15,2013-08-28 06:41:00,
2013-08-28 02:46:00,69.0,68.7,29.95,NW,319,0.0,0.0,99,0.00,,,0.00,Wunderground v.1.15,2013-08-28 06:46:00,
2013-08-28 02:51:00,68.9,68.6,29.95,NW,319,0.0,0.0,99,0.00,,,0.00,Wunderground v.1.15,2013-08-28 06:51:00,
2013-08-28 02:56:00,68.9,68.6,29.94,NW,319,0.0,0.0,99,0.00,,,0.00,Wunderground v.1.15,2013-08-28 06:56:00,
2013-08-28 03:01:00,68.9,68.6,29.94,NW,319,0.0,0.0,99,0.00,,,0.00,Wunderground v.1.15,2013-08-28 07:01:00,
2013-08-28 03:06:00,68.8,68.5,29.94,NW,319,0.0,0.0,99,0.00,,,0.00,Wunderground v.1.15,2013-08-28 07:06:00,
2013-08-28 03:11:00,68.8,68.5,29.94,NW,319,0.0,0.0,99,0.00,,,0.00,Wunderground v.1.15,2013-08-28 07:11:00,
2013-08-28 03:17:00,68.7,68.4,29.94,NW,319,0.0,0.0,99,0.00,,,0.00,Wunderground v.1.15,2013-08-28 07:17:00,
2013-08-28 03:22:00,68.7,68.4,29.94,NW,319,0.0,0.0,99,0.00,,,0.00,Wunderground v.1.15,2013-08-28 07:22:00,
2013-08-28 03:27:00,68.7,68.4,29.94,NW,319,0.0,0.0,99,0.00,,,0.00,Wunderground v.1.15,2013-08-28 07:27:00,
2013-08-28 03:32:00,68.7,68.4,29.94,NW,319,0.0,0.0,99,0.00,,,0.00,Wunderground v.1.15,2013-08-28 07:32:00,
2013-08-28 03:37:00,68.6,68.3,29.94,NW,319,0.0,0.0,99,0.00,,,0.00,Wunderground v.1.15,2013-08-28 07:37:00,
2013-08-28 03:42:00,68.7,68.4,29.94,NW,319,0.0,0.0,99,0.00,,,0.00,Wunderground v.1.15,2013-08-28 07:42:00,
2013-08-28 03:47:00,68.7,68.4,29.94,NW,319,0.0,0.0,99,0.00,,,0.00,Wunderground v.1.15,2013-08-28 07:47:00,
2013-08-28 03:52:00,68.5,68.2,29.93,NW,319,0.0,0.0,99,0.00,,,0.00,Wunderground v.1.15,2013-08-28 07:52:00,
2013-08-28 03:57:00,68.4,68.1,29.93,NW,319,0.0,0.0,99,0.00,,,0.00,Wunderground v.1.15,2013-08-28 07:57:00,
2013-08-28 04:02:00,68.2,67.9,29.93,NW,319,0.0,0.0,99,0.00,,,0.00,Wunderground v.1.15,2013-08-28 08:02:00,
2013-08-28 04:07:00,68.1,67.8,29.93,NW,319,0.0,0.0,99,0.00,,,0.00,Wunderground v.1.15,2013-08-28 08:07:00,
2013-08-28 04:12:00,68.1,67.8,29.93,NW,319,0.0,0.0,99,0.00,,,0.00,Wunderground v.1.15,2013-08-28 08:12:00,
2013-08-28 04:17:00,68.0,67.7,29.93,NW,319,0.0,0.0,99,0.00,,,0.00,Wunderground v.1.15,2013-08-28 08:17:00,
2013-08-28 04:22:00,67.9,67.6,29.93,NW,319,0.0,0.0,99,0.00,,,0.00,Wunderground v.1.15,2013-08-28 08:22:00,
2013-08-28 04:27:00,67.7,67.4,29.93,NW,319,0.0,0.0,99,0.00,,,0.00,Wunderground v.1.15,2013-08-28 08:27:00,
2013-08-28 04:32:00,67.6,67.3,29.93,NW,319,0.0,0.0,99,0.00,,,0.00,Wunderground v.1.15,2013-08-28 08:32:00,
2013-08-28 04:37:00,67.5,67.2,29.93,NW,319,0.0,0.0,99,0.00,,,0.00,Wunderground v.1.15,2013-08-28 08:37:00,
2013-08-28 04:42:00,67.5,67.2,29.93,NW,319,0.0,0.0,99,0.00,,,0.00,Wunderground v.1.15,2013-08-28 08:42:00,
2013-08-28 04:47:00,67.4,67.1,29.93,NW,319,0.0,0.0,99,0.00,,,0.00,Wunderground v.1.15,2013-08-28 08:47:00,
2013-08-28 04:52:00,67.3,67.0,29.93,NW,319,0.0,0.0,99,0.00,,,0.00,Wunderground v.1.15,2013-08-28 08:52:00,
2013-08-28 04:57:00,67.2,66.9,29.94,NW,319,0.0,0.0,99,0.00,,,0.00,Wunderground v.1.15,2013-08-28 08:57:00,
2013-08-28 05:03:00,67.2,66.9,29.94,NW,319,0.0,0.0,99,0.00,,,0.00,Wunderground v.1.15,2013-08-28 09:03:00,
2013-08-28 05:08:00,67.2,66.9,29.94,NW,319,0.0,0.0,99,0.00,,,0.00,Wunderground v.1.15,2013-08-28 09:08:00,
2013-08-28 05:13:00,67.1,66.8,29.94,NW,319,0.0,0.0,99,0.00,,,0.00,Wunderground v.1.15,2013-08-28 09:13:00,
2013-08-28 05:18:00,67.0,66.7,29.94,NW,319,0.0,0.0,99,0.00,,,0.00,Wunderground v.1.15,2013-08-28 09:18:00,
2013-08-28 05:23:00,66.8,66.5,29.94,NW,319,0.0,0.0,99,0.00,,,0.00,Wunderground v.1.15,2013-08-28 09:23:00,
2013-08-28 05:28:00,66.8,66.5,29.94,NW,319,0.0,0.0,99,0.00,,,0.00,Wunderground v.1.15,2013-08-28 09:28:00,
2013-08-28 05:33:00,66.8,66.5,29.94,NW,319,0.0,0.0,99,0.00,,,0.00,Wunderground v.1.15,2013-08-28 09:33:00,
2013-08-28 05:34:00,66.8,66.5,29.94,NW,319,0.0,0.0,99,0.00,,,0.00,Wunderground v.1.15,2013-08-28 09:34:00,
2013-08-28 05:39:00,66.7,66.4,29.94,NW,319,0.0,0.0,99,0.00,,,0.00,Wunderground v.1.15,2013-08-28 09:39:00,
2013-08-28 05:44:00,66.6,66.3,29.94,NW,319,0.0,0.0,99,0.00,,,0.00,Wunderground v.1.15,2013-08-28 09:44:00,
2013-08-28 05:49:00,66.6,66.3,29.95,NW,319,0.0,0.0,99,0.00,,,0.00,Wunderground v.1.15,2013-08-28 09:49:00,
2013-08-28 05:54:00,66.5,66.2,29.94,NW,319,0.0,0.0,99,0.00,,,0.00,Wunderground v.1.15,2013-08-28 09:54:00,
2013-08-28 05:59:00,66.4,66.1,29.94,NW,319,0.0,0.0,99,0.00,,,0.00,Wunderground v.1.15,2013-08-28 09:59:00,
2013-08-28 06:04:00,66.4,66.1,29.94,NW,319,0.0,0.0,99,0.00,,,0.00,Wunderground v.1.15,2013-08-28 10:04:00,
2013-08-28 06:09:00,66.4,66.1,29.95,NW,319,0.0,0.0,99,0.00,,,0.00,Wunderground v.1.15,2013-08-28 10:09:00,
2013-08-28 06:14:00,66.3,66.0,29.95,NW,319,0.0,0.0,99,0.00,,,0.00,Wunderground v.1.15,2013-08-28 10:14:00,
2013-08-28 06:19:00,66.2,65.9,29.95,NW,319,0.0,0.0,99,0.00,,,0.00,Wunderground v.1.15,2013-08-28 10:19:00,
2013-08-28 06:24:00,66.2,65.9,29.95,NW,319,0.0,0.0,99,0.00,,,0.00,Wunderground v.1.15,2013-08-28 10:24:00,
2013-08-28 06:29:00,66.2,65.9,29.95,NW,319,0.0,0.0,99,0.00,,,0.00,Wunderground v.1.15,2013-08-28 10:29:00,
2013-08-28 06:34:00,66.2,65.9,29.95,NW,319,0.0,0.0,99,0.00,,,0.00,Wunderground v.1.15,2013-08-28 10:34:00,
2013-08-28 06:39:00,66.1,65.8,29.95,NW,319,0.0,0.0,99,0.00,,,0.00,Wunderground v.1.15,2013-08-28 10:39:00,
2013-08-28 06:44:00,65.9,65.6,29.96,NW,319,0.0,0.0,99,0.00,,,0.00,Wunderground v.1.15,2013-08-28 10:44:00,
2013-08-28 06:49:00,65.9,65.6,29.96,NW,319,0.0,0.0,99,0.00,,,0.00,Wunderground v.1.15,2013-08-28 10:49:00,
2013-08-28 06:54:00,65.8,65.5,29.96,NW,319,0.0,0.0,99,0.00,,,0.00,Wunderground v.1.15,2013-08-28 10:54:00,
2013-08-28 06:59:00,65.9,65.6,29.96,NW,319,0.0,0.0,99,0.00,,,0.00,Wunderground v.1.15,2013-08-28 10:59:00,
2013-08-28 07:04:00,65.9,65.6,29.96,NW,319,0.0,0.0,99,0.00,,,0.00,Wunderground v.1.15,2013-08-28 11:04:00,
2013-08-28 07:09:00,66.1,65.8,29.96,NW,319,0.0,0.0,99,0.00,,,0.00,Wunderground v.1.15,2013-08-28 11:09:00,
2013-08-28 07:14:00,66.2,65.9,29.97,NW,319,0.0,0.0,99,0.00,,,0.00,Wunderground v.1.15,2013-08-28 11:14:00,
2013-08-28 07:19:00,66.3,66.0,29.97,NW,319,0.0,0.0,99,0.00,,,0.00,Wunderground v.1.15,2013-08-28 11:19:00,
2013-08-28 07:24:00,66.3,66.0,29.97,NW,319,0.0,0.0,99,0.00,,,0.00,Wunderground v.1.15,2013-08-28 11:24:00,
2013-08-28 07:29:00,66.5,66.2,29.97,NW,319,0.0,0.0,99,0.00,,,0.00,Wunderground v.1.15,2013-08-28 11:29:00,
2013-08-28 07:34:00,66.7,66.4,29.97,NW,319,0.0,0.0,99,0.00,,,0.00,Wunderground v.1.15,2013-08-28 11:34:00,
2013-08-28 07:39:00,66.8,66.5,29.97,NW,319,0.0,0.0,99,0.00,,,0.00,Wunderground v.1.15,2013-08-28 11:39:00,
2013-08-28 07:44:00,67.1,67.1,29.97,NW,319,0.0,0.0,100,0.00,,,0.00,Wunderground v.1.15,2013-08-28 11:44:00,
2013-08-28 07:49:00,67.2,67.2,29.97,NW,319,0.0,0.0,100,0.00,,,0.00,Wunderground v.1.15,2013-08-28 11:49:00,
2013-08-28 07:54:00,67.4,67.4,29.97,NW,319,0.0,0.0,100,0.00,,,0.00,Wunderground v.1.15,2013-08-28 11:54:00,
2013-08-28 07:59:00,67.5,67.5,29.97,NW,319,0.0,0.0,100,0.00,,,0.00,Wunderground v.1.15,2013-08-28 11:59:00,
2013-08-28 08:04:00,67.6,67.6,29.96,NW,319,0.0,0.0,100,0.00,,,0.00,Wunderground v.1.15,2013-08-28 12:04:00,
2013-08-28 08:09:00,67.8,67.8,29.96,NW,319,0.0,0.0,100,0.00,,,0.00,Wunderground v.1.15,2013-08-28 12:09:00,
2013-08-28 08:14:00,68.0,68.0,29.97,NW,319,0.0,0.0,100,0.00,,,0.00,Wunderground v.1.15,2013-08-28 12:14:00,
2013-08-28 08:19:00,68.3,68.3,29.97,NW,319,0.0,0.0,100,0.00,,,0.00,Wunderground v.1.15,2013-08-28 12:19:00,
2013-08-28 08:24:00,68.6,68.6,29.97,NW,319,0.0,0.0,100,0.00,,,0.00,Wunderground v.1.15,2013-08-28 12:24:00,
2013-08-28 08:29:00,68.8,68.8,29.97,NW,319,0.0,0.0,100,0.00,,,0.00,Wunderground v.1.15,2013-08-28 12:29:00,
2013-08-28 08:34:00,69.1,69.1,29.97,NW,319,0.0,0.0,100,0.00,,,0.00,Wunderground v.1.15,2013-08-28 12:34:00,
2013-08-28 08:39:00,69.5,69.5,29.97,NW,319,0.0,0.0,100,0.00,,,0.00,Wunderground v.1.15,2013-08-28 12:39:00,
2013-08-28 08:45:00,70.0,70.0,29.97,NW,319,0.0,0.0,100,0.00,,,0.00,Wunderground v.1.15,2013-08-28 12:45:00,
2013-08-28 08:50:00,70.5,70.5,29.97,NW,319,0.0,0.0,100,0.00,,,0.00,Wunderground v.1.15,2013-08-28 12:50:00,
2013-08-28 08:55:00,71.0,71.0,29.97,NW,319,0.0,0.0,100,0.00,,,0.00,Wunderground v.1.15,2013-08-28 12:55:00,
2013-08-28 09:00:00,71.4,71.4,29.97,NW,319,0.0,0.0,100,0.00,,,0.00,Wunderground v.1.15,2013-08-28 13:00:00,
2013-08-28 09:05:00,71.8,71.8,29.97,NW,319,0.0,0.0,100,0.00,,,0.00,Wunderground v.1.15,2013-08-28 13:05:00,
2013-08-28 09:10:00,72.0,72.0,29.97,NW,319,0.0,0.0,100,0.00,,,0.00,Wunderground v.1.15,2013-08-28 13:10:00,
2013-08-28 09:15:00,72.6,72.6,29.97,NW,319,0.0,0.0,100,0.00,,,0.00,Wunderground v.1.15,2013-08-28 13:15:00,
2013-08-28 09:20:00,72.7,72.7,29.97,NW,319,0.0,0.0,100,0.00,,,0.00,Wunderground v.1.15,2013-08-28 13:20:00,
2013-08-28 09:25:00,73.0,73.0,29.96,NW,319,0.0,0.0,100,0.00,,,0.00,Wunderground v.1.15,2013-08-28 13:25:00,
2013-08-28 09:30:00,73.4,73.4,29.97,NW,319,0.0,0.0,100,0.00,,,0.00,Wunderground v.1.15,2013-08-28 13:30:00,
2013-08-28 09:35:00,73.8,73.5,29.97,NW,319,0.0,0.0,99,0.00,,,0.00,Wunderground v.1.15,2013-08-28 13:35:00,
2013-08-28 09:40:00,74.1,73.5,29.97,NW,319,0.0,0.0,98,0.00,,,0.00,Wunderground v.1.15,2013-08-28 13:40:00,
2013-08-28 09:45:00,74.4,73.8,29.97,NW,319,0.0,0.0,98,0.00,,,0.00,Wunderground v.1.15,2013-08-28 13:45:00,
2013-08-28 09:50:00,74.6,73.7,29.97,NW,319,0.0,0.0,97,0.00,,,0.00,Wunderground v.1.15,2013-08-28 13:50:00,
2013-08-28 09:55:00,74.8,73.9,29.97,NW,319,0.0,0.0,97,0.00,,,0.00,Wunderground v.1.15,2013-08-28 13:55:00,
2013-08-28 10:00:00,75.0,73.8,29.97,NW,319,0.0,0.0,96,0.00,,,0.00,Wunderground v.1.15,2013-08-28 14:00:00,
2013-08-28 10:05:00,75.3,73.8,29.98,NW,319,0.0,0.0,95,0.00,,,0.00,Wunderground v.1.15,2013-08-28 14:05:00,
2013-08-28 10:10:00,75.7,74.2,29.98,NW,319,0.0,0.0,95,0.00,,,0.00,Wunderground v.1.15,2013-08-28 14:10:00,
2013-08-28 10:15:00,76.0,74.1,29.98,NW,319,0.0,0.0,94,0.00,,,0.00,Wunderground v.1.15,2013-08-28 14:15:00,
2013-08-28 10:20:00,76.4,74.2,29.98,NW,319,0.0,0.0,93,0.00,,,0.00,Wunderground v.1.15,2013-08-28 14:20:00,
2013-08-28 10:26:00,76.8,73.6,29.98,NW,319,0.0,0.0,90,0.00,,,0.00,Wunderground v.1.15,2013-08-28 14:26:00,
2013-08-28 10:31:00,77.0,73.2,29.98,NW,306,0.0,0.0,88,0.00,,,0.00,Wunderground v.1.15,2013-08-28 14:31:00,
2013-08-28 10:36:00,77.4,73.6,29.98,WNW,300,1.0,1.0,88,0.00,,,0.00,Wunderground v.1.15,2013-08-28 14:36:00,
2013-08-28 10:41:00,77.4,73.6,29.98,WNW,302,0.0,2.0,88,0.00,,,0.00,Wunderground v.1.15,2013-08-28 14:41:00,
2013-08-28 10:46:00,77.5,73.3,29.98,WNW,300,1.0,1.0,87,0.00,,,0.00,Wunderground v.1.15,2013-08-28 14:46:00,
2013-08-28 10:51:00,77.5,73.0,29.98,WNW,296,0.0,2.0,86,0.00,,,0.00,Wunderground v.1.15,2013-08-28 14:51:00,
2013-08-28 10:56:00,77.6,73.1,29.98,WNW,302,0.0,1.0,86,0.00,,,0.00,Wunderground v.1.15,2013-08-28 14:56:00,
2013-08-28 11:01:00,77.6,73.1,29.98,WNW,300,1.0,2.0,86,0.00,,,0.00,Wunderground v.1.15,2013-08-28 15:01:00,
2013-08-28 11:06:00,77.6,73.4,29.98,WNW,300,1.0,1.0,87,0.00,,,0.00,Wunderground v.1.15,2013-08-28 15:06:00,
2013-08-28 11:11:00,77.7,73.2,29.98,NW,315,2.0,2.0,86,0.00,,,0.00,Wunderground v.1.15,2013-08-28 15:11:00,
2013-08-28 11:16:00,77.8,73.3,29.98,WNW,300,0.0,1.0,86,0.00,,,0.00,Wunderground v.1.15,2013-08-28 15:16:00,
2013-08-28 11:21:00,78.0,73.5,29.98,WNW,300,1.0,1.0,86,0.00,,,0.00,Wunderground v.1.15,2013-08-28 15:21:00,
2013-08-28 11:26:00,78.2,73.3,29.98,WNW,302,0.0,1.0,85,0.00,,,0.00,Wunderground v.1.15,2013-08-28 15:26:00,
2013-08-28 11:31:00,78.6,73.7,29.97,WNW,297,0.0,1.0,85,0.00,,,0.00,Wunderground v.1.15,2013-08-28 15:31:00,
2013-08-28 11:36:00,78.8,73.9,29.98,WNW,300,1.0,1.0,85,0.00,,,0.00,Wunderground v.1.15,2013-08-28 15:36:00,
2013-08-28 11:41:00,79.1,74.2,29.98,WNW,300,0.0,1.0,85,0.00,,,0.00,Wunderground v.1.15,2013-08-28 15:41:00,
2013-08-28 11:46:00,79.4,74.5,29.98,WNW,300,0.0,0.0,85,0.00,,,0.00,Wunderground v.1.15,2013-08-28 15:46:00,
2013-08-28 11:51:00,79.7,73.7,29.98,WNW,302,1.0,2.0,82,0.00,,,0.00,Wunderground v.1.15,2013-08-28 15:51:00,
2013-08-28 11:56:00,80.1,74.5,29.98,WNW,302,0.0,1.0,83,0.00,,,0.00,Wunderground v.1.15,2013-08-28 15:56:00,
2013-08-28 12:02:00,80.3,74.7,29.98,WNW,298,0.0,1.0,83,0.00,,,0.00,Wunderground v.1.15,2013-08-28 16:02:00,
2013-08-28 12:07:00,80.6,74.2,29.98,West,280,1.0,2.0,81,0.00,,,0.00,Wunderground v.1.15,2013-08-28 16:07:00,
2013-08-28 12:12:00,80.7,74.0,29.98,WSW,248,1.0,4.0,80,0.00,,,0.00,Wunderground v.1.15,2013-08-28 16:12:00,
2013-08-28 12:17:00,80.8,74.4,29.97,WNW,285,1.0,3.0,81,0.00,,,0.00,Wunderground v.1.15,2013-08-28 16:17:00,
2013-08-28 12:22:00,81.0,74.2,29.97,WSW,257,1.0,4.0,80,0.00,,,0.00,Wunderground v.1.15,2013-08-28 16:22:00,
2013-08-28 12:27:00,81.1,74.7,29.97,West,263,1.0,2.0,81,0.00,,,0.00,Wunderground v.1.15,2013-08-28 16:27:00,
2013-08-28 12:32:00,81.3,74.2,29.97,WNW,285,2.0,3.0,79,0.00,,,0.00,Wunderground v.1.15,2013-08-28 16:32:00,
2013-08-28 12:37:00,81.6,74.8,29.97,West,277,0.0,1.0,80,0.00,,,0.00,Wunderground v.1.15,2013-08-28 16:37:00,
2013-08-28 12:42:00,81.9,74.4,29.97,WSW,238,2.0,4.0,78,0.00,,,0.00,Wunderground v.1.15,2013-08-28 16:42:00,
2013-08-28 12:47:00,82.0,74.1,29.97,West,267,1.0,2.0,77,0.00,,,0.00,Wunderground v.1.15,2013-08-28 16:47:00,
2013-08-28 12:52:00,81.9,74.4,29.97,West,271,1.0,4.0,78,0.00,,,0.00,Wunderground v.1.15,2013-08-28 16:52:00,
2013-08-28 12:57:00,82.1,74.9,29.97,WSW,253,1.0,2.0,79,0.00,,,0.00,Wunderground v.1.15,2013-08-28 16:57:00,
2013-08-28 13:02:00,82.2,74.7,29.96,West,267,1.0,3.0,78,0.00,,,0.00,Wunderground v.1.15,2013-08-28 17:02:00,
2013-08-28 13:08:00,82.4,75.2,29.96,West,262,0.0,1.0,79,0.00,,,0.00,Wunderground v.1.15,2013-08-28 17:08:00,
2013-08-28 13:13:00,82.5,74.9,29.96,WSW,253,1.0,2.0,78,0.00,,,0.00,Wunderground v.1.15,2013-08-28 17:13:00,
2013-08-28 13:18:00,82.8,75.6,29.96,WNW,294,1.0,1.0,79,0.00,,,0.00,Wunderground v.1.15,2013-08-28 17:18:00,
2013-08-28 13:23:00,83.1,75.5,29.95,NNW,330,0.0,2.0,78,0.00,,,0.00,Wunderground v.1.15,2013-08-28 17:23:00,
2013-08-28 13:28:00,83.4,75.8,29.95,West,270,1.0,1.0,78,0.00,,,0.00,Wunderground v.1.15,2013-08-28 17:28:00,
2013-08-28 13:33:00,83.6,75.6,29.95,West,270,0.0,1.0,77,0.00,,,0.00,Wunderground v.1.15,2013-08-28 17:33:00,
2013-08-28 13:38:00,83.7,75.7,29.95,West,278,1.0,1.0,77,0.00,,,0.00,Wunderground v.1.15,2013-08-28 17:38:00,
2013-08-28 13:43:00,83.8,76.2,29.95,West,260,0.0,1.0,78,0.00,,,0.00,Wunderground v.1.15,2013-08-28 17:43:00,
2013-08-28 13:48:00,84.0,75.6,29.95,West,271,1.0,1.0,76,0.00,,,0.00,Wunderground v.1.15,2013-08-28 17:48:00,
2013-08-28 13:53:00,83.9,75.5,29.95,WNW,294,0.0,2.0,76,0.00,,,0.00,Wunderground v.1.15,2013-08-28 17:53:00,
2013-08-28 13:58:00,84.4,75.2,29.95,WNW,300,1.0,2.0,74,0.00,,,0.00,Wunderground v.1.15,2013-08-28 17:58:00,
2013-08-28 14:03:00,84.6,75.0,29.94,West,272,3.0,4.0,73,0.00,,,0.00,Wunderground v.1.15,2013-08-28 18:03:00,
2013-08-28 14:08:00,84.9,75.7,29.94,WNW,299,0.0,1.0,74,0.00,,,0.00,Wunderground v.1.15,2013-08-28 18:08:00,
2013-08-28 14:13:00,85.1,75.5,29.94,SW,226,0.0,3.0,73,0.00,,,0.00,Wunderground v.1.15,2013-08-28 18:13:00,
2013-08-28 14:18:00,85.3,75.7,29.93,SW,220,1.0,3.0,73,0.00,,,0.00,Wunderground v.1.15,2013-08-28 18:18:00,
2013-08-28 14:23:00,85.0,75.0,29.93,WNW,295,1.0,4.0,72,0.00,,,0.00,Wunderground v.1.15,2013-08-28 18:23:00,
2013-08-28 14:28:00,84.9,76.5,29.93,SW,233,2.0,2.0,76,0.00,,,0.00,Wunderground v.1.15,2013-08-28 18:28:00,
2013-08-28 14:33:00,84.7,75.5,29.93,West,264,0.0,3.0,74,0.00,,,0.00,Wunderground v.1.15,2013-08-28 18:33:00,
2013-08-28 14:38:00,84.5,76.1,29.93,SW,221,1.0,1.0,76,0.00,,,0.00,Wunderground v.1.15,2013-08-28 18:38:00,
2013-08-28 14:43:00,84.3,75.9,29.92,SW,232,1.0,3.0,76,0.00,,,0.00,Wunderground v.1.15,2013-08-28 18:43:00,
2013-08-28 14:48:00,84.2,76.6,29.92,WSW,253,2.0,2.0,78,0.00,,,0.00,Wunderground v.1.15,2013-08-28 18:48:00,
2013-08-28 14:53:00,84.1,76.5,29.92,West,264,1.0,3.0,78,0.00,,,0.00,Wunderground v.1.15,2013-08-28 18:53:00,
2013-08-28 14:58:00,83.9,76.3,29.92,West,259,0.0,2.0,78,0.00,,,0.00,Wunderground v.1.15,2013-08-28 18:58:00,
2013-08-28 15:03:00,83.8,76.2,29.92,WSW,245,0.0,2.0,78,0.00,,,0.00,Wunderground v.1.15,2013-08-28 19:03:00,
2013-08-28 15:08:00,83.9,76.7,29.92,WSW,248,0.0,1.0,79,0.00,,,0.00,Wunderground v.1.15,2013-08-28 19:08:00,
2013-08-28 15:13:00,84.0,76.8,29.92,WSW,250,1.0,2.0,79,0.00,,,0.00,Wunderground v.1.15,2013-08-28 19:13:00,
2013-08-28 15:18:00,84.1,77.3,29.91,SW,221,1.0,2.0,80,0.00,,,0.00,Wunderground v.1.15,2013-08-28 19:18:00,
2013-08-28 15:23:00,84.3,77.5,29.91,SW,226,1.0,3.0,80,0.00,,,0.00,Wunderground v.1.15,2013-08-28 19:23:00,
2013-08-28 15:28:00,84.8,77.2,29.91,West,270,2.0,2.0,78,0.00,,,0.00,Wunderground v.1.15,2013-08-28 19:28:00,
2013-08-28 15:33:00,85.3,77.7,29.91,SSW,193,0.0,4.0,78,0.00,,,0.00,Wunderground v.1.15,2013-08-28 19:33:00,
2013-08-28 15:38:00,85.3,77.3,29.91,West,269,3.0,4.0,77,0.00,,,0.00,Wunderground v.1.15,2013-08-28 19:38:00,
2013-08-28 15:43:00,85.0,76.2,29.90,WSW,257,2.0,4.0,75,0.00,,,0.00,Wunderground v.1.15,2013-08-28 19:43:00,
2013-08-28 15:48:00,84.4,76.0,29.90,SW,219,2.0,4.0,76,0.00,,,0.00,Wunderground v.1.15,2013-08-28 19:48:00,
2013-08-28 15:54:00,83.9,75.9,29.90,WSW,256,1.0,7.0,77,0.00,,,0.00,Wunderground v.1.15,2013-08-28 19:54:00,
2013-08-28 15:59:00,83.8,76.2,29.90,WSW,248,0.0,2.0,78,0.00,,,0.00,Wunderground v.1.15,2013-08-28 19:59:00,
2013-08-28 16:04:00,83.7,76.1,29.90,SW,236,1.0,2.0,78,0.00,,,0.00,Wunderground v.1.15,2013-08-28 20:04:00,
2013-08-28 16:09:00,83.5,75.9,29.90,SW,214,0.0,1.0,78,0.00,,,0.00,Wunderground v.1.15,2013-08-28 20:09:00,
2013-08-28 16:14:00,83.4,75.8,29.90,West,273,1.0,4.0,78,0.00,,,0.00,Wunderground v.1.15,2013-08-28 20:14:00,
2013-08-28 16:19:00,83.3,76.9,29.89,WSW,238,0.0,3.0,81,0.00,,,0.00,Wunderground v.1.15,2013-08-28 20:19:00,
2013-08-28 16:24:00,83.4,76.6,29.90,SW,233,1.0,3.0,80,0.00,,,0.00,Wunderground v.1.15,2013-08-28 20:24:00,
2013-08-28 16:29:00,83.5,76.7,29.89,West,262,2.0,2.0,80,0.00,,,0.00,Wunderground v.1.15,2013-08-28 20:29:00,
2013-08-28 16:34:00,83.7,76.9,29.89,SW,226,1.0,2.0,80,0.00,,,0.00,Wunderground v.1.15,2013-08-28 20:34:00,
2013-08-28 16:39:00,84.5,77.3,29.89,SW,219,1.0,2.0,79,0.00,,,0.00,Wunderground v.1.15,2013-08-28 20:39:00,
2013-08-28 16:44:00,85.2,77.2,29.89,West,270,1.0,3.0,77,0.00,,,0.00,Wunderground v.1.15,2013-08-28 20:44:00,
2013-08-28 16:49:00,85.7,77.3,29.89,WSW,243,4.0,7.0,76,0.00,,,0.00,Wunderground v.1.15,2013-08-28 20:49:00,
2013-08-28 16:54:00,85.3,76.5,29.89,NNW,333,2.0,7.0,75,0.00,,,0.00,Wunderground v.1.15,2013-08-28 20:54:00,
2013-08-28 17:00:00,85.8,77.0,29.89,West,271,2.0,4.0,75,0.00,,,0.00,Wunderground v.1.15,2013-08-28 21:00:00,
2013-08-28 17:05:00,85.9,77.5,29.89,ESE,119,1.0,4.0,76,0.00,,,0.00,Wunderground v.1.15,2013-08-28 21:05:00,
2013-08-28 17:10:00,86.3,77.0,29.89,WSW,245,4.0,5.0,74,0.00,,,0.00,Wunderground v.1.15,2013-08-28 21:10:00,
2013-08-28 17:15:00,85.8,76.5,29.88,SSW,201,1.0,5.0,74,0.00,,,0.00,Wunderground v.1.15,2013-08-28 21:15:00,
2013-08-28 17:20:00,85.3,76.1,29.88,South,181,1.0,4.0,74,0.00,,,0.00,Wunderground v.1.15,2013-08-28 21:20:00,
2013-08-28 17:25:00,84.8,76.0,29.88,North,4,1.0,4.0,75,0.00,,,0.00,Wunderground v.1.15,2013-08-28 21:25:00,
2013-08-28 17:30:00,84.6,76.2,29.88,SW,224,0.0,2.0,76,0.00,,,0.00,Wunderground v.1.15,2013-08-28 21:30:00,
2013-08-28 17:35:00,84.4,76.4,29.88,SW,222,3.0,3.0,77,0.00,,,0.00,Wunderground v.1.15,2013-08-28 21:35:00,
2013-08-28 17:40:00,84.1,76.5,29.88,WSW,248,0.0,4.0,78,0.00,,,0.00,Wunderground v.1.15,2013-08-28 21:40:00,
2013-08-28 17:45:00,84.6,77.0,29.88,SW,219,1.0,4.0,78,0.00,,,0.00,Wunderground v.1.15,2013-08-28 21:45:00,
2013-08-28 17:50:00,85.2,77.2,29.88,WNW,288,2.0,3.0,77,0.00,,,0.00,Wunderground v.1.15,2013-08-28 21:50:00,
2013-08-28 17:55:00,85.3,76.5,29.87,SW,215,3.0,5.0,75,0.00,,,0.00,Wunderground v.1.15,2013-08-28 21:55:00,
2013-08-28 18:00:00,85.5,76.7,29.87,WSW,242,4.0,6.0,75,0.00,,,0.00,Wunderground v.1.15,2013-08-28 22:00:00,
2013-08-28 18:05:00,85.2,76.4,29.88,WSW,248,0.0,6.0,75,0.00,,,0.00,Wunderground v.1.15,2013-08-28 22:05:00,
2013-08-28 18:10:00,85.5,77.1,29.88,West,268,0.0,2.0,76,0.00,,,0.00,Wunderground v.1.15,2013-08-28 22:10:00,
2013-08-28 18:15:00,85.3,76.1,29.87,SW,218,2.0,6.0,74,0.00,,,0.00,Wunderground v.1.15,2013-08-28 22:15:00,
2013-08-28 18:20:00,85.1,76.3,29.88,WSW,253,1.0,3.0,75,0.00,,,0.00,Wunderground v.1.15,2013-08-28 22:20:00,
2013-08-28 18:25:00,85.4,77.0,29.88,West,272,1.0,1.0,76,0.00,,,0.00,Wunderground v.1.15,2013-08-28 22:25:00,
2013-08-28 18:30:00,85.2,76.4,29.88,West,260,1.0,4.0,75,0.00,,,0.00,Wunderground v.1.15,2013-08-28 22:30:00,
2013-08-28 18:35:00,85.0,76.6,29.88,West,270,0.0,4.0,76,0.00,,,0.00,Wunderground v.1.15,2013-08-28 22:35:00,
2013-08-28 18:40:00,84.7,76.7,29.88,SW,221,1.0,6.0,77,0.00,,,0.00,Wunderground v.1.15,2013-08-28 22:40:00,
2013-08-28 18:45:00,84.6,76.2,29.88,SW,235,1.0,6.0,76,0.00,,,0.00,Wunderground v.1.15,2013-08-28 22:45:00,
2013-08-28 18:50:00,84.6,77.0,29.88,WSW,256,1.0,2.0,78,0.00,,,0.00,Wunderground v.1.15,2013-08-28 22:50:00,
2013-08-28 18:55:00,84.6,76.6,29.88,WSW,240,0.0,3.0,77,0.00,,,0.00,Wunderground v.1.15,2013-08-28 22:55:00,
2013-08-28 19:00:00,84.4,76.4,29.87,SW,233,1.0,4.0,77,0.00,,,0.00,Wunderground v.1.15,2013-08-28 23:00:00,
2013-08-28 19:05:00,84.1,76.1,29.87,WSW,253,1.0,4.0,77,0.00,,,0.00,Wunderground v.1.15,2013-08-28 23:05:00,
2013-08-28 19:10:00,83.9,76.3,29.87,WSW,257,2.0,2.0,78,0.00,,,0.00,Wunderground v.1.15,2013-08-28 23:10:00,
2013-08-28 19:15:00,83.6,76.4,29.87,WSW,248,1.0,2.0,79,0.00,,,0.00,Wunderground v.1.15,2013-08-28 23:15:00,
2013-08-28 19:20:00,83.0,76.2,29.87,SW,219,1.0,2.0,80,0.00,,,0.00,Wunderground v.1.15,2013-08-28 23:20:00,
2013-08-28 19:26:00,82.2,76.2,29.87,SW,229,0.0,2.0,82,0.00,,,0.00,Wunderground v.1.15,2013-08-28 23:26:00,
2013-08-28 19:31:00,81.6,75.6,29.87,SW,221,0.0,1.0,82,0.00,,,0.00,Wunderground v.1.15,2013-08-28 23:31:00,
2013-08-28 19:36:00,81.2,75.5,29.88,SW,224,1.0,2.0,83,0.00,,,0.00,Wunderground v.1.15,2013-08-28 23:36:00,
2013-08-28 19:41:00,80.8,75.9,29.88,SW,235,0.0,1.0,85,0.00,,,0.00,Wunderground v.1.15,2013-08-28 23:41:00,
2013-08-28 19:46:00,80.3,75.7,29.88,West,280,0.0,0.0,86,0.00,,,0.00,Wunderground v.1.15,2013-08-28 23:46:00,
2013-08-28 19:51:00,79.7,75.5,29.87,WSW,242,0.0,1.0,87,0.00,,,0.00,Wunderground v.1.15,2013-08-28 23:51:00,
2013-08-28 19:56:00,79.1,75.2,29.87,SW,231,0.0,0.0,88,0.00,,,0.00,Wunderground v.1.15,2013-08-28 23:56:00,
2013-08-28 20:01:00,78.7,74.8,29.87,SW,226,1.0,1.0,88,0.00,,,0.00,Wunderground v.1.15,2013-08-29 00:01:00,
2013-08-28 20:06:00,78.6,74.7,29.87,SW,217,0.0,0.0,88,0.00,,,0.00,Wunderground v.1.15,2013-08-29 00:06:00,
2013-08-28 20:11:00,78.7,74.5,29.87,SW,229,0.0,2.0,87,0.00,,,0.00,Wunderground v.1.15,2013-08-29 00:11:00,
2013-08-28 20:16:00,78.6,74.7,29.87,SW,229,0.0,0.0,88,0.00,,,0.00,Wunderground v.1.15,2013-08-29 00:16:00,
2013-08-28 20:21:00,78.4,74.5,29.87,WSW,244,0.0,1.0,88,0.00,,,0.00,Wunderground v.1.15,2013-08-29 00:21:00,
2013-08-28 20:26:00,78.1,74.6,29.87,WSW,245,0.0,0.0,89,0.00,,,0.00,Wunderground v.1.15,2013-08-29 00:26:00,
2013-08-28 20:31:00,77.8,74.6,29.87,WNW,293,1.0,1.0,90,0.00,,,0.00,Wunderground v.1.15,2013-08-29 00:31:00,
2013-08-28 20:36:00,77.6,74.4,29.86,WNW,293,0.0,0.0,90,0.00,,,0.00,Wunderground v.1.15,2013-08-29 00:36:00,
2013-08-28 20:41:00,77.4,74.6,29.87,WNW,293,0.0,0.0,91,0.00,,,0.00,Wunderground v.1.15,2013-08-29 00:41:00,
2013-08-28 20:46:00,77.3,74.5,29.88,West,271,0.0,1.0,91,0.00,,,0.00,Wunderground v.1.15,2013-08-29 00:46:00,
2013-08-28 20:51:00,77.4,74.6,29.88,West,271,0.0,1.0,91,0.00,,,0.00,Wunderground v.1.15,2013-08-29 00:51:00,
2013-08-28 20:56:00,77.4,74.2,29.88,West,271,0.0,0.0,90,0.00,,,0.00,Wunderground v.1.15,2013-08-29 00:56:00,
2013-08-28 21:01:00,77.3,74.1,29.89,West,271,0.0,0.0,90,0.00,,,0.00,Wunderground v.1.15,2013-08-29 01:01:00,
2013-08-28 21:06:00,77.4,74.6,29.89,West,271,0.0,0.0,91,0.00,,,0.00,Wunderground v.1.15,2013-08-29 01:06:00,
2013-08-28 21:11:00,77.3,74.5,29.89,West,271,0.0,0.0,91,0.00,,,0.00,Wunderground v.1.15,2013-08-29 01:11:00,
2013-08-28 21:16:00,77.3,74.1,29.89,West,271,0.0,0.0,90,0.00,,,0.00,Wunderground v.1.15,2013-08-29 01:16:00,
2013-08-28 21:22:00,77.3,74.5,29.88,West,271,0.0,0.0,91,0.00,,,0.00,Wunderground v.1.15,2013-08-29 01:22:00,
2013-08-28 21:27:00,77.1,74.3,29.88,West,271,0.0,0.0,91,0.00,,,0.00,Wunderground v.1.15,2013-08-29 01:27:00,
2013-08-28 21:32:00,76.9,74.1,29.88,West,271,0.0,0.0,91,0.00,,,0.00,Wunderground v.1.15,2013-08-29 01:32:00,
2013-08-28 21:37:00,76.7,74.2,29.88,West,271,0.0,0.0,92,0.00,,,0.00,Wunderground v.1.15,2013-08-29 01:37:00,
2013-08-28 21:42:00,76.4,73.9,29.87,West,271,0.0,0.0,92,0.00,,,0.00,Wunderground v.1.15,2013-08-29 01:42:00,
2013-08-28 21:47:00,76.3,73.8,29.87,West,266,0.0,0.0,92,0.00,,,0.00,Wunderground v.1.15,2013-08-29 01:47:00,
2013-08-28 21:52:00,76.3,73.8,29.87,West,266,0.0,0.0,92,0.00,,,0.00,Wunderground v.1.15,2013-08-29 01:52:00,
2013-08-28 21:57:00,76.2,73.7,29.87,West,265,0.0,0.0,92,0.00,,,0.00,Wunderground v.1.15,2013-08-29 01:57:00,
2013-08-28 22:02:00,76.2,73.7,29.87,NNW,335,0.0,0.0,92,0.00,,,0.00,Wunderground v.1.15,2013-08-29 02:02:00,
2013-08-28 22:07:00,76.2,73.7,29.87,WSW,253,0.0,0.0,92,0.00,,,0.00,Wunderground v.1.15,2013-08-29 02:07:00,
2013-08-28 22:12:00,76.3,73.5,29.88,WSW,247,0.0,0.0,91,0.00,,,0.00,Wunderground v.1.15,2013-08-29 02:12:00,
2013-08-28 22:17:00,76.2,73.4,29.88,WSW,248,0.0,0.0,91,0.00,,,0.00,Wunderground v.1.15,2013-08-29 02:17:00,
2013-08-28 22:22:00,76.2,73.7,29.88,WSW,248,0.0,0.0,92,0.00,,,0.00,Wunderground v.1.15,2013-08-29 02:22:00,
2013-08-28 22:27:00,76.0,73.5,29.88,WSW,248,0.0,0.0,92,0.00,,,0.00,Wunderground v.1.15,2013-08-29 02:27:00,
2013-08-28 22:32:00,75.9,73.7,29.88,WSW,248,0.0,0.0,93,0.00,,,0.00,Wunderground v.1.15,2013-08-29 02:32:00,
2013-08-28 22:37:00,75.7,73.5,29.88,WSW,248,0.0,0.0,93,0.00,,,0.00,Wunderground v.1.15,2013-08-29 02:37:00,
2013-08-28 22:42:00,75.7,73.2,29.89,West,260,1.0,1.0,92,0.00,,,0.00,Wunderground v.1.15,2013-08-29 02:42:00,
2013-08-28 22:47:00,76.0,73.5,29.89,West,259,0.0,0.0,92,0.00,,,0.00,Wunderground v.1.15,2013-08-29 02:47:00,
2013-08-28 22:52:00,76.2,73.4,29.89,West,259,0.0,0.0,91,0.00,,,0.00,Wunderground v.1.15,2013-08-29 02:52:00,
2013-08-28 22:57:00,76.3,73.5,29.89,West,259,0.0,0.0,91,0.00,,,0.00,Wunderground v.1.15,2013-08-29 02:57:00,
2013-08-28 23:02:00,76.6,73.4,29.89,West,262,1.0,5.0,90,0.00,,,0.00,Wunderground v.1.15,2013-08-29 03:02:00,
2013-08-28 23:07:00,76.8,73.3,29.88,WSW,250,3.0,3.0,89,0.00,,,0.00,Wunderground v.1.15,2013-08-29 03:07:00,
2013-08-28 23:12:00,76.9,73.4,29.88,West,267,1.0,3.0,89,0.00,,,0.00,Wunderground v.1.15,2013-08-29 03:12:00,
2013-08-28 23:17:00,77.1,73.3,29.88,West,260,0.0,1.0,88,0.00,,,0.00,Wunderground v.1.15,2013-08-29 03:17:00,
2013-08-28 23:22:00,77.1,73.3,29.87,West,270,1.0,2.0,88,0.00,,,0.00,Wunderground v.1.15,2013-08-29 03:22:00,
2013-08-28 23:27:00,77.3,73.1,29.87,West,270,1.0,2.0,87,0.00,,,0.00,Wunderground v.1.15,2013-08-29 03:27:00,
2013-08-28 23:32:00,77.5,73.3,29.87,WSW,256,1.0,4.0,87,0.00,,,0.00,Wunderground v.1.15,2013-08-29 03:32:00,
2013-08-28 23:37:00,77.6,73.4,29.87,WSW,252,2.0,3.0,87,0.00,,,0.00,Wunderground v.1.15,2013-08-29 03:37:00,
2013-08-28 23:42:00,77.7,73.5,29.87,West,262,0.0,5.0,87,0.00,,,0.00,Wunderground v.1.15,2013-08-29 03:42:00,
2013-08-28 23:47:00,77.6,73.4,29.87,WSW,249,0.0,2.0,87,0.00,,,0.00,Wunderground v.1.15,2013-08-29 03:47:00,
2013-08-28 23:52:00,77.6,73.4,29.87,West,262,2.0,2.0,87,0.00,,,0.00,Wunderground v.1.15,2013-08-29 03:52:00,
2013-08-28 23:58:00,77.5,73.3,29.86,West,265,1.0,2.0,87,0.00,,,0.00,Wunderground v.1.15,2013-08-29 03:58:00,